createdAt,value
2022-10-30T00:00:43.743Z,100988.41
2022-10-30T00:03:14.185Z,100974.81
2022-10-30T00:05:43.116Z,100973.16
2022-10-30T00:08:13.815Z,100973.56
2022-10-30T00:10:40.773Z,100984.47
2022-10-30T00:13:07.965Z,100980.09
2022-10-30T00:15:34.721Z,100986.78
2022-10-30T00:18:01.797Z,100992.22
2022-10-30T00:20:28.136Z,100988.88
2022-10-30T00:22:54.965Z,100985.53
2022-10-30T00:25:21.866Z,100990.34
2022-10-30T00:27:48.351Z,100990.56
2022-10-30T00:30:15.586Z,100983.66
2022-10-30T00:32:42.784Z,100985.75
2022-10-30T00:35:10.325Z,100984.25
2022-10-30T00:37:36.802Z,100973.56
2022-10-30T00:40:04.584Z,100987.41
2022-10-30T00:42:31.850Z,100983.41
2022-10-30T00:44:59.018Z,100982.16
2022-10-30T00:47:30.373Z,100985.09
2022-10-30T00:50:17.852Z,100980.06
2022-10-30T00:52:51.533Z,100987.59
2022-10-30T00:55:22.745Z,100987.19
2022-10-30T00:57:50.682Z,100997.84
2022-10-30T01:00:19.099Z,100995.56
2022-10-30T01:02:45.842Z,100994.28
2022-10-30T01:05:17.185Z,100994.50
2022-10-30T01:07:43.511Z,101000.56
2022-10-30T01:10:10.993Z,101006.44
2022-10-30T01:12:38.377Z,101005.97
2022-10-30T01:15:05.534Z,101003.47
2022-10-30T01:17:49.915Z,101003.91
2022-10-30T01:20:22.185Z,101000.53
2022-10-30T01:23:03.640Z,101004.50
2022-10-30T01:25:56.583Z,101001.34
2022-10-30T01:28:22.856Z,101000.94
2022-10-30T01:31:06.613Z,101004.91
2022-10-30T01:33:46.032Z,101013.47
2022-10-30T01:36:25.844Z,101014.09
2022-10-30T01:39:14.542Z,101008.41
2022-10-30T01:41:41.040Z,101012.78
2022-10-30T01:44:16.666Z,101015.28
2022-10-30T01:47:07.547Z,101015.03
2022-10-30T01:49:59.105Z,101010.41
2022-10-30T01:52:39.537Z,101020.00
2022-10-30T01:55:36.692Z,101015.38
2022-10-30T01:58:21.920Z,101017.03
2022-10-30T02:00:57.536Z,101007.81
2022-10-30T02:03:24.821Z,101014.69
2022-10-30T02:05:52.744Z,101005.28
2022-10-30T02:08:21.029Z,101006.69
2022-10-30T02:10:49.577Z,101005.22
2022-10-30T02:13:16.447Z,101007.28
2022-10-30T02:15:44.460Z,101013.97
2022-10-30T02:18:11.081Z,101010.63
2022-10-30T02:20:37.889Z,101006.44
2022-10-30T02:23:06.678Z,101003.06
2022-10-30T02:25:33.658Z,101009.75
2022-10-30T02:28:00.240Z,101001.78
2022-10-30T02:30:26.905Z,101004.72
2022-10-30T02:32:53.313Z,101009.28
2022-10-30T02:35:19.701Z,101002.19
2022-10-30T02:37:48.541Z,101006.78
2022-10-30T02:40:14.898Z,101007.81
2022-10-30T02:42:41.248Z,100999.03
2022-10-30T02:45:08.306Z,101006.34
2022-10-30T02:47:34.624Z,101005.50
2022-10-30T02:50:01.006Z,100995.69
2022-10-30T02:52:27.405Z,100992.31
2022-10-30T02:54:53.735Z,100997.09
2022-10-30T02:57:20.094Z,100993.56
2022-10-30T02:59:46.545Z,100993.78
2022-10-30T03:02:12.954Z,100996.88
2022-10-30T03:04:39.395Z,101003.53
2022-10-30T03:07:05.740Z,100994.13
2022-10-30T03:09:32.066Z,100994.31
2022-10-30T03:11:58.426Z,100999.13
2022-10-30T03:14:24.922Z,101003.25
2022-10-30T03:16:52.512Z,101000.06
2022-10-30T03:19:19.580Z,101007.75
2022-10-30T03:21:46.382Z,101002.94
2022-10-30T03:24:12.827Z,101011.44
2022-10-30T03:26:39.168Z,101003.91
2022-10-30T03:29:05.524Z,100997.19
2022-10-30T03:31:32.677Z,101011.34
2022-10-30T03:33:59.036Z,101009.22
2022-10-30T03:36:26.336Z,101007.09
2022-10-30T03:38:52.721Z,101003.06
2022-10-30T03:41:19.029Z,101022.47
2022-10-30T03:43:45.483Z,101018.66
2022-10-30T03:46:11.848Z,101016.50
2022-10-30T03:48:38.194Z,101013.38
2022-10-30T03:51:04.677Z,101014.78
2022-10-30T03:53:31.227Z,101013.66
2022-10-30T03:56:00.092Z,101019.66
2022-10-30T03:58:28.519Z,101016.69
2022-10-30T04:00:55.455Z,101016.25
2022-10-30T04:03:21.911Z,101018.50
2022-10-30T04:05:50.965Z,101009.06
2022-10-30T04:08:17.884Z,101021.13
2022-10-30T04:10:45.427Z,101021.69
2022-10-30T04:13:14.138Z,101023.13
2022-10-30T04:15:40.971Z,101026.38
2022-10-30T04:18:13.239Z,101023.88
2022-10-30T04:20:39.916Z,101017.31
2022-10-30T04:23:08.354Z,101022.94
2022-10-30T04:25:35.387Z,101034.16
2022-10-30T04:28:02.366Z,101029.13
2022-10-30T04:30:31.249Z,101039.09
2022-10-30T04:32:58.390Z,101024.91
2022-10-30T04:35:27.300Z,101011.56
2022-10-30T04:38:05.205Z,101008.84
2022-10-30T04:40:34.957Z,101020.72
2022-10-30T04:43:02.902Z,101010.91
2022-10-30T04:45:29.846Z,101015.31
2022-10-30T04:48:04.603Z,101016.97
2022-10-30T04:50:32.129Z,101009.88
2022-10-30T04:53:03.796Z,101019.69
2022-10-30T04:55:30.953Z,101016.97
2022-10-30T04:57:59.027Z,101013.22
2022-10-30T05:00:27.078Z,101024.06
2022-10-30T05:02:53.466Z,101016.78
2022-10-30T05:05:20.458Z,101025.75
2022-10-30T05:07:46.949Z,101024.06
2022-10-30T05:10:18.347Z,101017.81
2022-10-30T05:12:45.452Z,101012.59
2022-10-30T05:15:13.526Z,101018.19
2022-10-30T05:17:40.783Z,101012.13
2022-10-30T05:20:07.997Z,101009.78
2022-10-30T05:22:34.375Z,101003.91
2022-10-30T05:25:00.717Z,101008.69
2022-10-30T05:27:27.050Z,101002.81
2022-10-30T05:29:53.391Z,101015.88
2022-10-30T05:32:19.799Z,101007.28
2022-10-30T05:34:46.197Z,101009.50
2022-10-30T05:37:12.543Z,101016.13
2022-10-30T05:39:38.873Z,101019.44
2022-10-30T05:42:08.524Z,101016.06
2022-10-30T05:44:59.250Z,101011.03
2022-10-30T05:47:22.581Z,101017.44
2022-10-30T05:49:48.926Z,101018.88
2022-10-30T05:52:15.333Z,101008.41
2022-10-30T05:54:41.683Z,101011.50
2022-10-30T05:57:08.013Z,101010.16
2022-10-30T05:59:34.430Z,101022.38
2022-10-30T06:02:00.858Z,101014.84
2022-10-30T06:04:27.314Z,101012.47
2022-10-30T06:06:53.672Z,101009.50
2022-10-30T06:09:20.076Z,101017.97
2022-10-30T06:11:46.416Z,101019.38
2022-10-30T06:14:12.745Z,101018.88
2022-10-30T06:16:39.431Z,101021.13
2022-10-30T06:19:05.777Z,101023.34
2022-10-30T06:21:32.156Z,101021.00
2022-10-30T06:23:58.951Z,101024.06
2022-10-30T06:26:25.357Z,101020.88
2022-10-30T06:28:51.886Z,101022.91
2022-10-30T06:31:18.266Z,101024.13
2022-10-30T06:36:11.066Z,101019.09
2022-10-30T06:38:37.483Z,101013.00
2022-10-30T06:41:03.987Z,101020.28
2022-10-30T06:43:30.429Z,101024.84
2022-10-30T06:45:59.890Z,101023.19
2022-10-30T06:48:26.325Z,101025.91
2022-10-30T06:51:00.213Z,101025.69
2022-10-30T06:53:27.263Z,101030.09
2022-10-30T06:56:00.241Z,101035.50
2022-10-30T06:58:27.733Z,101040.06
2022-10-30T07:01:10.053Z,101041.75
2022-10-30T07:03:36.756Z,101041.38
2022-10-30T07:06:03.531Z,101050.16
2022-10-30T07:08:29.889Z,101053.50
2022-10-30T07:10:58.095Z,101055.88
2022-10-30T07:13:24.666Z,101051.97
2022-10-30T07:15:51.032Z,101062.41
2022-10-30T07:18:17.414Z,101059.50
2022-10-30T07:20:43.828Z,101058.16
2022-10-30T07:23:10.205Z,101055.09
2022-10-30T07:25:36.521Z,101058.25
2022-10-30T07:28:03.336Z,101064.16
2022-10-30T07:30:29.812Z,101065.47
2022-10-30T07:33:02.157Z,101068.47
2022-10-30T07:35:29.563Z,101067.25
2022-10-30T07:37:55.976Z,101071.97
2022-10-30T07:40:22.803Z,101076.63
2022-10-30T07:42:49.339Z,101070.47
2022-10-30T07:45:15.720Z,101067.03
2022-10-30T07:47:43.342Z,101076.94
2022-10-30T07:50:10.666Z,101077.84
2022-10-30T07:52:37.315Z,101072.34
2022-10-30T07:55:04.942Z,101066.84
2022-10-30T07:57:35.511Z,101071.13
2022-10-30T08:00:04.653Z,101072.09
2022-10-30T08:02:31.986Z,101080.09
2022-10-30T08:04:58.661Z,101080.22
2022-10-30T08:07:29.680Z,101084.50
2022-10-30T08:09:56.074Z,101085.44
2022-10-30T08:12:22.433Z,101088.22
2022-10-30T08:14:49.176Z,101084.38
2022-10-30T08:17:15.584Z,101083.59
2022-10-30T08:19:41.913Z,101079.09
2022-10-30T08:22:08.924Z,101074.56
2022-10-30T08:24:35.370Z,101072.59
2022-10-30T08:27:02.590Z,101072.63
2022-10-30T08:29:28.964Z,101070.63
2022-10-30T08:31:55.561Z,101076.97
2022-10-30T08:34:22.353Z,101074.09
2022-10-30T08:36:52.011Z,101068.56
2022-10-30T08:39:19.000Z,101061.53
2022-10-30T08:41:45.761Z,101062.41
2022-10-30T08:44:12.506Z,101056.22
2022-10-30T08:46:38.908Z,101060.00
2022-10-30T08:49:05.285Z,101057.31
2022-10-30T08:51:35.347Z,101048.41
2022-10-30T08:54:01.834Z,101041.53
2022-10-30T08:56:28.285Z,101039.03
2022-10-30T08:58:54.777Z,101039.09
2022-10-30T09:01:21.267Z,101028.25
2022-10-30T09:03:47.850Z,101031.03
2022-10-30T09:06:14.202Z,101026.66
2022-10-30T09:08:40.713Z,101032.97
2022-10-30T09:11:07.239Z,101026.72
2022-10-30T09:13:33.617Z,101031.97
2022-10-30T09:16:01.402Z,101031.00
2022-10-30T09:18:29.295Z,101034.34
2022-10-30T09:20:55.666Z,101026.00
2022-10-30T09:23:22.153Z,101031.25
2022-10-30T09:25:48.542Z,101026.50
2022-10-30T09:28:14.902Z,101026.28
2022-10-30T09:30:41.279Z,101029.66
2022-10-30T09:33:09.098Z,101036.59
2022-10-30T09:35:36.952Z,101040.75
2022-10-30T09:38:03.475Z,101034.09
2022-10-30T09:41:03.454Z,101043.31
2022-10-30T09:44:00.639Z,101034.72
2022-10-30T09:46:45.408Z,101033.47
2022-10-30T09:49:41.330Z,101036.41
2022-10-30T09:52:32.341Z,101036.38
2022-10-30T09:55:32.126Z,101041.16
2022-10-30T09:58:12.417Z,101039.66
2022-10-30T10:00:44.629Z,101027.69
2022-10-30T10:03:42.326Z,101020.56
2022-10-30T10:06:15.764Z,101025.78
2022-10-30T10:08:46.635Z,101016.31
2022-10-30T10:11:25.910Z,101020.44
2022-10-30T10:14:09.363Z,101017.25
2022-10-30T10:16:39.232Z,101013.19
2022-10-30T10:19:20.598Z,101011.06
2022-10-30T10:21:57.693Z,101002.63
2022-10-30T10:24:32.650Z,101010.53
2022-10-30T10:27:23.355Z,101006.47
2022-10-30T10:30:11.035Z,101005.38
2022-10-30T10:33:08.835Z,101003.84
2022-10-30T10:35:52.699Z,101001.06
2022-10-30T10:38:37.410Z,100996.75
2022-10-30T10:41:18.657Z,100993.75
2022-10-30T10:44:00.382Z,100996.19
2022-10-30T10:46:49.288Z,100991.03
2022-10-30T10:49:32.396Z,100993.47
2022-10-30T10:52:07.145Z,100988.78
2022-10-30T10:54:42.268Z,100983.88
2022-10-30T10:57:21.880Z,100989.03
2022-10-30T10:59:54.059Z,100991.69
2022-10-30T11:02:26.607Z,100986.38
2022-10-30T11:04:59.896Z,100984.63
2022-10-30T11:07:45.425Z,100988.13
2022-10-30T11:10:14.567Z,101000.88
2022-10-30T11:12:41.610Z,101000.19
2022-10-30T11:15:49.769Z,100997.34
2022-10-30T11:18:16.224Z,100990.72
2022-10-30T11:21:03.538Z,100995.25
2022-10-30T11:23:35.928Z,100990.53
2022-10-30T11:26:03.241Z,100979.75
2022-10-30T11:28:41.948Z,100980.50
2022-10-30T11:31:24.578Z,100975.75
2022-10-30T11:33:51.827Z,100968.75
2022-10-30T11:36:22.929Z,100967.22
2022-10-30T11:38:50.021Z,100966.75
2022-10-30T11:41:18.074Z,100970.44
2022-10-30T11:43:45.218Z,100972.47
2022-10-30T11:46:21.007Z,100969.88
2022-10-30T11:48:54.536Z,100962.84
2022-10-30T11:51:39.472Z,100968.44
2022-10-30T11:54:07.176Z,100968.78
2022-10-30T11:56:35.387Z,100959.25
2022-10-30T11:59:04.612Z,100956.41
2022-10-30T12:01:39.014Z,100962.25
2022-10-30T12:04:22.091Z,100954.19
2022-10-30T12:07:08.150Z,100961.69
2022-10-30T12:09:45.662Z,100959.28
2022-10-30T12:12:24.395Z,100959.06
2022-10-30T12:14:52.367Z,100947.63
2022-10-30T12:17:20.090Z,100943.56
2022-10-30T12:19:52.840Z,100954.88
2022-10-30T12:22:30.361Z,100953.34
2022-10-30T12:24:58.662Z,100956.09
2022-10-30T12:27:25.841Z,100953.94
2022-10-30T12:30:08.384Z,100945.84
2022-10-30T12:32:45.676Z,100942.59
2022-10-30T12:35:22.436Z,100938.56
2022-10-30T12:37:52.634Z,100937.47
2022-10-30T12:40:24.339Z,100933.19
2022-10-30T12:43:03.705Z,100936.53
2022-10-30T12:45:41.224Z,100928.63
2022-10-30T12:48:27.951Z,100917.19
2022-10-30T12:51:21.251Z,100921.34
2022-10-30T12:54:04.800Z,100917.28
2022-10-30T12:56:38.882Z,100925.28
2022-10-30T12:59:39.826Z,100922.28
2022-10-30T13:02:32.874Z,100923.09
2022-10-30T13:05:05.481Z,100909.38
2022-10-30T13:07:51.183Z,100916.28
2022-10-30T13:10:25.673Z,100912.22
2022-10-30T13:13:02.006Z,100912.00
2022-10-30T13:15:33.636Z,100912.59
2022-10-30T13:18:13.670Z,100914.03
2022-10-30T13:20:40.738Z,100909.38
2022-10-30T13:23:20.439Z,100908.06
2022-10-30T13:26:09.998Z,100921.53
2022-10-30T13:28:46.621Z,100911.16
2022-10-30T13:31:34.522Z,100911.75
2022-10-30T13:34:16.351Z,100906.25
2022-10-30T13:36:50.605Z,100910.44
2022-10-30T13:39:26.035Z,100902.19
2022-10-30T13:42:01.167Z,100904.44
2022-10-30T13:44:56.617Z,100901.47
2022-10-30T13:47:42.361Z,100911.13
2022-10-30T13:50:25.528Z,100900.16
2022-10-30T13:52:57.576Z,100900.97
2022-10-30T13:55:34.670Z,100894.41
2022-10-30T13:58:24.535Z,100900.16
2022-10-30T14:00:59.935Z,100894.06
2022-10-30T14:03:59.042Z,100904.22
2022-10-30T14:06:30.941Z,100894.78
2022-10-30T14:09:27.942Z,100895.88
2022-10-30T14:11:56.987Z,100897.69
2022-10-30T14:14:23.339Z,100894.56
2022-10-30T14:17:08.568Z,100892.56
2022-10-30T14:20:13.355Z,100893.03
2022-10-30T14:22:41.186Z,100904.16
2022-10-30T14:25:15.244Z,100902.75
2022-10-30T14:27:41.983Z,100897.97
2022-10-30T14:30:20.645Z,100899.31
2022-10-30T14:32:51.843Z,100899.78
2022-10-30T14:35:39.003Z,100907.41
2022-10-30T14:38:08.360Z,100903.25
2022-10-30T14:40:38.590Z,100897.44
2022-10-30T14:43:32.044Z,100902.09
2022-10-30T14:46:04.813Z,100908.88
2022-10-30T14:48:53.868Z,100915.69
2022-10-30T14:51:28.091Z,100908.78
2022-10-30T14:54:18.478Z,100908.19
2022-10-30T14:56:49.632Z,100904.00
2022-10-30T14:59:15.909Z,100906.63
2022-10-30T15:01:52.657Z,100913.44
2022-10-30T15:04:34.265Z,100913.91
2022-10-30T15:07:19.608Z,100916.53
2022-10-30T15:10:06.648Z,100914.53
2022-10-30T15:13:07.563Z,100902.59
2022-10-30T15:15:34.745Z,100900.81
2022-10-30T15:18:18.045Z,100898.78
2022-10-30T15:20:49.549Z,100898.88
2022-10-30T15:23:31.961Z,100896.88
2022-10-30T15:26:06.476Z,100902.47
2022-10-30T15:28:36.795Z,100898.78
2022-10-30T15:31:06.478Z,100893.44
2022-10-30T15:33:37.542Z,100891.63
2022-10-30T15:36:05.456Z,100900.78
2022-10-30T15:38:31.940Z,100894.84
2022-10-30T15:41:01.751Z,100893.84
2022-10-30T15:43:42.057Z,100893.09
2022-10-30T15:46:10.667Z,100901.66
2022-10-30T15:48:40.283Z,100902.56
2022-10-30T15:51:16.817Z,100906.47
2022-10-30T15:53:43.242Z,100897.78
2022-10-30T15:56:30.664Z,100902.75
2022-10-30T15:59:03.453Z,100901.78
2022-10-30T16:01:33.025Z,100897.69
2022-10-30T16:03:59.626Z,100899.66
2022-10-30T16:06:31.362Z,100901.88
2022-10-30T16:08:58.197Z,100908.69
2022-10-30T16:11:26.646Z,100906.03
2022-10-30T16:13:53.535Z,100908.25
2022-10-30T16:16:27.822Z,100909.38
2022-10-30T16:18:58.971Z,100909.69
2022-10-30T16:21:29.598Z,100911.66
2022-10-30T16:23:58.079Z,100917.41
2022-10-30T16:26:35.283Z,100915.81
2022-10-30T16:29:13.871Z,100916.72
2022-10-30T16:31:43.063Z,100907.94
2022-10-30T16:34:16.139Z,100918.94
2022-10-30T16:36:43.137Z,100918.13
2022-10-30T16:39:15.326Z,100924.50
2022-10-30T16:41:43.259Z,100927.50
2022-10-30T16:44:12.340Z,100934.69
2022-10-30T16:46:42.174Z,100925.69
2022-10-30T16:49:16.264Z,100933.09
2022-10-30T16:51:43.001Z,100936.09
2022-10-30T16:54:20.296Z,100946.81
2022-10-30T16:56:48.873Z,100943.28
2022-10-30T16:59:24.313Z,100958.00
2022-10-30T17:01:57.438Z,100956.16
2022-10-30T17:04:25.007Z,100961.66
2022-10-30T17:07:04.764Z,100966.03
2022-10-30T17:09:36.300Z,100972.34
2022-10-30T17:12:15.280Z,100976.97
2022-10-30T17:14:43.807Z,100981.66
2022-10-30T17:17:23.445Z,100992.53
2022-10-30T17:19:56.407Z,100996.13
2022-10-30T17:22:24.190Z,100997.19
2022-10-30T17:24:50.680Z,100995.53
2022-10-30T17:27:46.167Z,101000.16
2022-10-30T17:30:34.459Z,101007.47
2022-10-30T17:33:24.732Z,101015.03
2022-10-30T17:35:51.355Z,101014.44
2022-10-30T17:38:18.229Z,101008.09
2022-10-30T17:40:44.593Z,101012.72
2022-10-30T17:43:16.564Z,101016.91
2022-10-30T17:45:44.058Z,101016.88
2022-10-30T17:48:18.126Z,101024.66
2022-10-30T17:50:44.914Z,101023.78
2022-10-30T17:53:23.151Z,101025.25
2022-10-30T17:56:03.545Z,101034.88
2022-10-30T17:58:31.061Z,101030.25
2022-10-30T18:00:58.408Z,101032.53
2022-10-30T18:03:24.812Z,101045.72
2022-10-30T18:05:52.362Z,101049.91
2022-10-30T18:08:18.729Z,101043.19
2022-10-30T18:10:45.112Z,101048.41
2022-10-30T18:13:13.233Z,101053.44
2022-10-30T18:15:44.057Z,101047.75
2022-10-30T18:18:10.929Z,101054.84
2022-10-30T18:20:38.660Z,101053.97
2022-10-30T18:23:31.610Z,101059.97
2022-10-30T18:26:00.066Z,101062.88
2022-10-30T18:28:26.529Z,101057.22
2022-10-30T18:30:58.346Z,101071.38
2022-10-30T18:33:25.217Z,101077.63
2022-10-30T18:35:51.650Z,101082.81
2022-10-30T18:38:18.060Z,101085.94
2022-10-30T18:40:46.646Z,101084.66
2022-10-30T18:43:14.322Z,101095.94
2022-10-30T18:45:41.841Z,101097.38
2022-10-30T18:48:08.749Z,101101.34
2022-10-30T18:50:35.842Z,101100.03
2022-10-30T18:53:02.603Z,101102.09
2022-10-30T18:55:34.821Z,101099.59
2022-10-30T18:58:01.891Z,101100.00
2022-10-30T19:00:39.699Z,101106.66
2022-10-30T19:03:16.796Z,101106.19
2022-10-30T19:05:48.278Z,101107.44
2022-10-30T19:08:15.147Z,101098.84
2022-10-30T19:10:43.891Z,101096.72
2022-10-30T19:13:20.339Z,101098.59
2022-10-30T19:15:49.623Z,101087.31
2022-10-30T19:18:17.178Z,101100.41
2022-10-30T19:21:03.401Z,101094.34
2022-10-30T19:23:30.045Z,101096.03
2022-10-30T19:25:56.881Z,101094.97
2022-10-30T19:28:23.365Z,101095.59
2022-10-30T19:30:50.269Z,101092.63
2022-10-30T19:33:18.117Z,101101.31
2022-10-30T19:35:44.592Z,101096.28
2022-10-30T19:38:12.685Z,101103.34
2022-10-30T19:40:40.487Z,101106.22
2022-10-30T19:43:07.140Z,101097.44
2022-10-30T19:45:34.257Z,101104.91
2022-10-30T19:48:04.170Z,101113.28
2022-10-30T19:50:34.366Z,101113.28
2022-10-30T19:53:02.368Z,101109.06
2022-10-30T19:55:31.261Z,101107.38
2022-10-30T19:57:59.500Z,101106.75
2022-10-30T20:00:27.302Z,101111.53
2022-10-30T20:02:55.753Z,101119.84
2022-10-30T20:05:24.709Z,101126.50
2022-10-30T20:08:00.573Z,101130.25
2022-10-30T20:10:28.512Z,101133.34
2022-10-30T20:12:54.900Z,101131.03
2022-10-30T20:15:22.790Z,101126.81
2022-10-30T20:17:49.647Z,101131.59
2022-10-30T20:20:19.976Z,101142.84
2022-10-30T20:22:46.582Z,101147.59
2022-10-30T20:25:13.821Z,101148.00
2022-10-30T20:27:41.986Z,101155.47
2022-10-30T20:30:13.260Z,101156.50
2022-10-30T20:32:39.670Z,101162.50
2022-10-30T20:35:10.294Z,101166.44
2022-10-30T20:37:37.845Z,101174.94
2022-10-30T20:40:04.787Z,101183.47
2022-10-30T20:42:36.860Z,101186.34
2022-10-30T20:45:04.146Z,101179.44
2022-10-30T20:47:30.579Z,101195.25
2022-10-30T20:49:56.913Z,101201.00
2022-10-30T20:52:23.382Z,101195.59
2022-10-30T20:54:49.818Z,101188.88
2022-10-30T20:57:16.195Z,101195.13
2022-10-30T20:59:42.532Z,101196.34
2022-10-30T21:02:11.552Z,101199.06
2022-10-30T21:04:38.037Z,101201.78
2022-10-30T21:07:04.437Z,101209.06
2022-10-30T21:09:30.762Z,101220.75
2022-10-30T21:11:57.206Z,101220.09
2022-10-30T21:14:23.665Z,101215.69
2022-10-30T21:16:50.213Z,101213.00
2022-10-30T21:19:16.581Z,101219.63
2022-10-30T21:21:42.917Z,101210.84
2022-10-30T21:24:09.597Z,101208.34
2022-10-30T21:26:37.641Z,101207.66
2022-10-30T21:29:05.089Z,101217.84
2022-10-30T21:31:31.731Z,101222.59
2022-10-30T21:33:58.071Z,101225.69
2022-10-30T21:36:24.712Z,101231.94
2022-10-30T21:38:51.190Z,101228.59
2022-10-30T21:41:20.059Z,101234.03
2022-10-30T21:43:54.382Z,101227.69
2022-10-30T21:46:22.008Z,101235.19
2022-10-30T21:48:48.776Z,101244.34
2022-10-30T21:51:23.821Z,101248.09
2022-10-30T21:53:50.476Z,101251.78
2022-10-30T21:56:22.156Z,101252.66
2022-10-30T21:58:49.220Z,101244.88
2022-10-30T22:01:19.203Z,101248.47
2022-10-30T22:03:46.572Z,101247.97
2022-10-30T22:06:15.121Z,101255.25
2022-10-30T22:08:45.323Z,101255.25
2022-10-30T22:11:12.332Z,101258.13
2022-10-30T22:13:38.980Z,101255.78
2022-10-30T22:16:07.847Z,101258.50
2022-10-30T22:18:34.883Z,101253.28
2022-10-30T22:21:11.928Z,101249.75
2022-10-30T22:23:39.255Z,101240.28
2022-10-30T22:26:17.593Z,101243.16
2022-10-30T22:28:44.466Z,101248.97
2022-10-30T22:31:16.614Z,101256.25
2022-10-30T22:33:43.673Z,101258.50
2022-10-30T22:36:17.607Z,101256.78
2022-10-30T22:38:45.163Z,101259.03
2022-10-30T22:41:14.834Z,101259.03
2022-10-30T22:43:42.580Z,101264.81
2022-10-30T22:46:09.844Z,101277.50
2022-10-30T22:48:36.964Z,101275.81
2022-10-30T22:51:07.675Z,101266.19
2022-10-30T22:53:36.014Z,101275.34
2022-10-30T22:56:21.118Z,101278.06
2022-10-30T22:58:50.906Z,101280.25
2022-10-30T23:01:26.830Z,101286.88
2022-10-30T23:03:56.054Z,101291.81
2022-10-30T23:06:22.575Z,101291.34
2022-10-30T23:08:51.197Z,101291.72
2022-10-30T23:11:17.565Z,101285.78
2022-10-30T23:13:45.290Z,101293.25
2022-10-30T23:16:16.734Z,101296.16
2022-10-30T23:18:44.112Z,101294.81
2022-10-30T23:21:14.254Z,101306.66
2022-10-30T23:23:41.641Z,101302.44
2022-10-30T23:26:13.981Z,101297.22
2022-10-30T23:28:40.446Z,101309.22
2022-10-30T23:31:08.762Z,101309.59
2022-10-30T23:33:35.097Z,101315.38
2022-10-30T23:36:03.549Z,101322.81
2022-10-30T23:38:30.456Z,101315.88
2022-10-30T23:40:56.838Z,101324.19
2022-10-30T23:43:23.303Z,101322.50
2022-10-30T23:45:49.835Z,101328.94
2022-10-30T23:48:16.456Z,101328.25
2022-10-30T23:50:42.810Z,101329.28
2022-10-30T23:53:09.197Z,101326.75
2022-10-30T23:55:35.548Z,101339.28
2022-10-30T23:58:02.301Z,101334.03
